^^
Meteo Knjazevac Station Historical Data
Daily Summary for August 23, 2021 Units:  Both    English   Metric
Daily Weekly Monthly Yearly Custom
  High: Low: Average:
Temperature: 59.7 °F /  15.4 °C 56.3 °F /  13.5 °C 58.1 °F /  14.5 °C
Dew Point: 55.1 °F /  12.8 °C 53 °F /  11.7 °C 54 °F /  12.2 °C
Humidity: 95% 80% 86%
Wind Speed: 5mph /  8km/h - 1.4mph /  2.3km/h
Wind Gust: 8mph /  12.9km/h - -
Wind- - SSW
Pressure: 30.19 in /  1022.2 hPa 30.13 in /  1020.2 hPa -
Precipitation: 0.01 in /  0.25 mm    
Historical Graphs
 
 
Tabular Data for August 23, 2021
Time Temperature Dew Point Pressure Wind Wind Speed Wind Gust Humidity Rainfall Rate (Hourly) solar Conditions
00:00 59.5 °F /  15.3 °C 53.4 °F /  11.9 °C 30.13in /  1020.2hPa NE 2mph /  3.2km/h 6mph /  9.7km/h 80% 0.00in /  0mm 0 W/m2
00:10 59.7 °F /  15.4 °C 53.5 °F /  11.9 °C 30.13in /  1020.2hPa SE 3mph /  4.8km/h 6mph /  9.7km/h 80% 0.00in /  0mm 0 W/m2
00:20 59.7 °F /  15.4 °C 53.5 °F /  11.9 °C 30.13in /  1020.2hPa SE 3mph /  4.8km/h 5mph /  8km/h 80% 0.00in /  0mm 0 W/m2
00:30 59.5 °F /  15.3 °C 53.4 °F /  11.9 °C 30.13in /  1020.2hPa Calm   5mph /  8km/h 80% 0.00in /  0mm 0 W/m2
00:40 59.4 °F /  15.2 °C 53.2 °F /  11.8 °C 30.13in /  1020.2hPa ESE 2mph /  3.2km/h 6mph /  9.7km/h 80% 0.00in /  0mm 0 W/m2
00:50 59.4 °F /  15.2 °C 53.5 °F /  11.9 °C 30.14in /  1020.5hPa NE 5mph /  8km/h 8mph /  12.9km/h 81% 0.00in /  0mm 0 W/m2
01:00 59.4 °F /  15.2 °C 53.2 °F /  11.8 °C 30.14in /  1020.5hPa NE 2mph /  3.2km/h 8mph /  12.9km/h 80% 0.00in /  0mm 0 W/m2
01:10 59.2 °F /  15.1 °C 53.4 °F /  11.9 °C 30.14in /  1020.5hPa Calm   5mph /  8km/h 81% 0.00in /  0mm 0 W/m2
01:20 58.8 °F /  14.9 °C 53.7 °F /  12.1 °C 30.14in /  1020.5hPa NNW 1mph /  1.6km/h 3mph /  4.8km/h 83% 0.00in /  0mm 0 W/m2
01:30 58.5 °F /  14.7 °C 53.3 °F /  11.8 °C 30.14in /  1020.5hPa NNE 1mph /  1.6km/h 4mph /  6.4km/h 83% 0.00in /  0mm 0 W/m2
01:40 58.8 °F /  14.9 °C 53 °F /  11.7 °C 30.14in /  1020.5hPa SE 2mph /  3.2km/h 4mph /  6.4km/h 81% 0.00in /  0mm 0 W/m2
01:50 58.6 °F /  14.8 °C 53.5 °F /  11.9 °C 30.15in /  1020.9hPa NNW 1mph /  1.6km/h 3mph /  4.8km/h 83% 0.00in /  0mm 0 W/m2
02:00 58.8 °F /  14.9 °C 53.7 °F /  12.1 °C 30.15in /  1020.9hPa East 1mph /  1.6km/h 4mph /  6.4km/h 83% 0.00in /  0mm 0 W/m2
02:10 59 °F /  15 °C 53.2 °F /  11.8 °C 30.15in /  1020.9hPa SW 1mph /  1.6km/h 4mph /  6.4km/h 81% 0.00in /  0mm 0 W/m2
02:20 59 °F /  15 °C 53.8 °F /  12.1 °C 30.15in /  1020.9hPa NW 2mph /  3.2km/h 3mph /  4.8km/h 83% 0.00in /  0mm 0 W/m2
02:30 58.8 °F /  14.9 °C 53.7 °F /  12.1 °C 30.15in /  1020.9hPa West 1mph /  1.6km/h 4mph /  6.4km/h 83% 0.00in /  0mm 0 W/m2
02:40 58.6 °F /  14.8 °C 53.8 °F /  12.1 °C 30.15in /  1020.9hPa West 1mph /  1.6km/h 3mph /  4.8km/h 84% 0.00in /  0mm 0 W/m2
02:50 58.5 °F /  14.7 °C 53.6 °F /  12 °C 30.15in /  1020.9hPa SW 1mph /  1.6km/h 3mph /  4.8km/h 84% 0.00in /  0mm 0 W/m2
03:00 58.5 °F /  14.7 °C 53.6 °F /  12 °C 30.15in /  1020.9hPa WSW 1mph /  1.6km/h 3mph /  4.8km/h 84% 0.00in /  0mm 0 W/m2
03:10 58.5 °F /  14.7 °C 54 °F /  12.2 °C 30.15in /  1020.9hPa West 1mph /  1.6km/h 3mph /  4.8km/h 85% 0.00in /  0mm 0 W/m2
03:20 58.3 °F /  14.6 °C 53.8 °F /  12.1 °C 30.15in /  1020.9hPa West 2mph /  3.2km/h 4mph /  6.4km/h 85% 0.00in /  0mm 0 W/m2
03:30 58.3 °F /  14.6 °C 53.8 °F /  12.1 °C 30.15in /  1020.9hPa WSW 1mph /  1.6km/h 5mph /  8km/h 85% 0.00in /  0mm 0 W/m2
03:40 58.3 °F /  14.6 °C 53.8 °F /  12.1 °C 30.15in /  1020.9hPa WSW 2mph /  3.2km/h 3mph /  4.8km/h 85% 0.00in /  0mm 0 W/m2
03:50 58.3 °F /  14.6 °C 53.8 °F /  12.1 °C 30.15in /  1020.9hPa SW 1mph /  1.6km/h 2mph /  3.2km/h 85% 0.00in /  0mm 0 W/m2
04:00 58.1 °F /  14.5 °C 53.6 °F /  12 °C 30.15in /  1020.9hPa SSW 2mph /  3.2km/h 3mph /  4.8km/h 85% 0.00in /  0mm 0 W/m2
04:10 57.9 °F /  14.4 °C 53.8 °F /  12.1 °C 30.15in /  1020.9hPa SW 1mph /  1.6km/h 3mph /  4.8km/h 86% 0.00in /  0mm 0 W/m2
04:20 57.9 °F /  14.4 °C 53.8 °F /  12.1 °C 30.15in /  1020.9hPa West 1mph /  1.6km/h 3mph /  4.8km/h 86% 0.00in /  0mm 0 W/m2
04:30 57.7 °F /  14.3 °C 54.2 °F /  12.3 °C 30.16in /  1021.2hPa WSW 2mph /  3.2km/h 3mph /  4.8km/h 88% 0.00in /  0mm 0 W/m2
04:40 57.7 °F /  14.3 °C 54.2 °F /  12.3 °C 30.16in /  1021.2hPa West 2mph /  3.2km/h 4mph /  6.4km/h 88% 0.00in /  0mm 0 W/m2
04:50 57.6 °F /  14.2 °C 54 °F /  12.2 °C 30.16in /  1021.2hPa West 2mph /  3.2km/h 4mph /  6.4km/h 88% 0.00in /  0mm 0 W/m2
05:00 57.6 °F /  14.2 °C 54.3 °F /  12.4 °C 30.17in /  1021.6hPa Calm   4mph /  6.4km/h 89% 0.00in /  0mm 0 W/m2
05:10 57.6 °F /  14.2 °C 54.3 °F /  12.4 °C 30.17in /  1021.6hPa WNW 1mph /  1.6km/h 2mph /  3.2km/h 89% 0.00in /  0mm 0 W/m2
05:20 57.6 °F /  14.2 °C 54.6 °F /  12.6 °C 30.17in /  1021.6hPa West 1mph /  1.6km/h 3mph /  4.8km/h 90% 0.00in /  0mm 0 W/m2
05:30 57.4 °F /  14.1 °C 54.5 °F /  12.5 °C 30.17in /  1021.6hPa Calm   2mph /  3.2km/h 90% 0.00in /  0mm 0 W/m2
05:40 57.4 °F /  14.1 °C 54.8 °F /  12.7 °C 30.17in /  1021.6hPa Calm   2mph /  3.2km/h 91% 0.00in /  0mm 0 W/m2
05:50 57.2 °F /  14 °C 54.6 °F /  12.6 °C 30.17in /  1021.6hPa West 1mph /  1.6km/h 2mph /  3.2km/h 91% 0.00in /  0mm 0 W/m2
06:00 57.2 °F /  14 °C 54.6 °F /  12.6 °C 30.17in /  1021.6hPa SSW 1mph /  1.6km/h 2mph /  3.2km/h 91% 0.00in /  0mm 0 W/m2
06:10 56.8 °F /  13.8 °C 54.8 °F /  12.7 °C 30.17in /  1021.6hPa SSE 2mph /  3.2km/h 5mph /  8km/h 93% 0.00in /  0mm 0 W/m2
06:20 56.7 °F /  13.7 °C 55 °F /  12.8 °C 30.17in /  1021.6hPa SSE 1mph /  1.6km/h 4mph /  6.4km/h 94% 0.00in /  0mm 0 W/m2
06:30 56.7 °F /  13.7 °C 55 °F /  12.8 °C 30.18in /  1021.9hPa West 1mph /  1.6km/h 2mph /  3.2km/h 94% 0.00in /  0mm 0 W/m2
06:40 56.5 °F /  13.6 °C 54.8 °F /  12.7 °C 30.18in /  1021.9hPa Calm   2mph /  3.2km/h 94% 0.00in /  0mm 0 W/m2
06:50 56.5 °F /  13.6 °C 55.1 °F /  12.8 °C 30.18in /  1021.9hPa NNE 2mph /  3.2km/h 4mph /  6.4km/h 95% 0.00in /  0mm 0 W/m2
07:00 56.5 °F /  13.6 °C 55.1 °F /  12.8 °C 30.18in /  1021.9hPa NE 2mph /  3.2km/h 3mph /  4.8km/h 95% 0.00in /  0mm 0 W/m2
07:10 56.3 °F /  13.5 °C 54.9 °F /  12.7 °C 30.19in /  1022.2hPa NE 2mph /  3.2km/h 5mph /  8km/h 95% 0.00in /  0mm 2 W/m2
Knjazevac, Serbia
Compliments of Weather Underground - 2 mb